createdAt,value
2023-01-31T00:00:00.789Z,15.67
2023-01-31T00:02:32.477Z,20.83
2023-01-31T00:05:00.675Z,17.57
2023-01-31T00:07:28.766Z,19.03
2023-01-31T00:09:56.883Z,20.40
2023-01-31T00:12:25.053Z,16.50
2023-01-31T00:14:53.102Z,18.93
2023-01-31T00:17:21.196Z,19.90
2023-01-31T00:19:50.606Z,13.13
2023-01-31T00:22:18.712Z,16.80
2023-01-31T00:24:46.771Z,19.80
2023-01-31T00:27:14.841Z,19.47
2023-01-31T00:29:42.907Z,17.10
2023-01-31T00:32:11.054Z,22.43
2023-01-31T00:34:39.569Z,16.83
2023-01-31T00:37:09.042Z,15.97
2023-01-31T00:39:37.148Z,14.57
2023-01-31T00:42:05.337Z,22.33
2023-01-31T00:44:34.555Z,22.50
2023-01-31T00:47:02.705Z,20.17
2023-01-31T00:49:30.862Z,25.07
2023-01-31T00:51:59.257Z,26.27
2023-01-31T00:54:28.709Z,22.57
2023-01-31T00:56:57.890Z,19.00
2023-01-31T00:59:26.213Z,22.23
2023-01-31T01:01:54.366Z,17.50
2023-01-31T01:04:22.502Z,26.03
2023-01-31T01:06:52.742Z,16.50
2023-01-31T01:09:22.866Z,15.70
2023-01-31T01:11:52.761Z,14.67
2023-01-31T01:14:20.848Z,18.10
2023-01-31T01:16:49.066Z,18.17
2023-01-31T01:19:19.835Z,11.37
2023-01-31T01:21:49.037Z,14.87
2023-01-31T01:24:19.186Z,16.10
2023-01-31T01:26:48.792Z,13.10
2023-01-31T01:29:18.296Z,12.00
2023-01-31T01:31:46.518Z,12.80
2023-01-31T01:34:16.570Z,17.50
2023-01-31T01:36:47.823Z,13.20
2023-01-31T01:39:18.037Z,14.30
2023-01-31T01:41:46.790Z,18.03
2023-01-31T01:45:00.676Z,13.20
2023-01-31T01:47:37.936Z,16.93
2023-01-31T01:50:12.861Z,12.83
2023-01-31T01:52:44.214Z,19.23
2023-01-31T01:55:18.200Z,13.50
2023-01-31T01:57:50.653Z,11.90
2023-01-31T02:00:23.437Z,20.40
2023-01-31T02:02:59.652Z,19.90
2023-01-31T02:05:31.757Z,14.43
2023-01-31T02:08:01.149Z,16.97
2023-01-31T02:10:33.419Z,21.20
2023-01-31T02:13:02.301Z,24.77
2023-01-31T02:15:31.038Z,18.57
2023-01-31T02:18:01.907Z,13.90
2023-01-31T02:21:12.537Z,16.20
2023-01-31T02:24:09.936Z,19.80
2023-01-31T02:27:24.631Z,21.20
2023-01-31T02:30:14.865Z,13.07
2023-01-31T02:32:54.660Z,20.33
2023-01-31T02:35:33.751Z,20.43
2023-01-31T02:38:17.790Z,25.03
2023-01-31T02:40:52.337Z,25.10
2023-01-31T02:43:26.534Z,21.03
2023-01-31T02:46:02.143Z,18.17
2023-01-31T02:48:40.780Z,17.20
2023-01-31T02:51:14.868Z,18.03
2023-01-31T02:53:49.543Z,19.47
2023-01-31T02:56:23.749Z,19.97
2023-01-31T02:58:57.414Z,17.30
2023-01-31T03:01:30.107Z,18.23
2023-01-31T03:04:03.326Z,20.80
2023-01-31T03:06:59.912Z,24.77
2023-01-31T03:09:39.554Z,18.37
2023-01-31T03:12:22.473Z,24.50
2023-01-31T03:15:00.819Z,23.20
2023-01-31T03:17:38.257Z,21.17
2023-01-31T03:20:13.078Z,23.10
2023-01-31T03:22:44.114Z,13.73
2023-01-31T03:25:15.032Z,20.30
2023-01-31T03:27:52.711Z,18.27
2023-01-31T03:30:27.382Z,22.90
2023-01-31T03:33:00.142Z,19.90
2023-01-31T03:35:32.721Z,13.17
2023-01-31T03:38:07.474Z,22.23
2023-01-31T03:40:40.098Z,16.97
2023-01-31T03:43:17.268Z,19.40
2023-01-31T03:45:51.783Z,21.30
2023-01-31T03:48:24.157Z,20.43
2023-01-31T03:50:58.954Z,22.70
2023-01-31T03:53:33.363Z,14.73
2023-01-31T03:56:05.417Z,17.47
2023-01-31T03:58:39.536Z,18.93
2023-01-31T04:01:11.209Z,21.83
2023-01-31T04:03:42.995Z,16.23
2023-01-31T04:06:13.779Z,20.20
2023-01-31T04:08:43.479Z,19.60
2023-01-31T04:11:14.051Z,19.60
2023-01-31T04:13:43.252Z,17.70
2023-01-31T04:16:11.511Z,18.53
2023-01-31T04:18:39.708Z,18.53
2023-01-31T04:21:07.721Z,18.80
2023-01-31T04:23:37.358Z,22.73
2023-01-31T04:26:05.793Z,14.83
2023-01-31T04:28:33.881Z,23.43
2023-01-31T04:31:02.047Z,14.70
2023-01-31T04:33:30.178Z,20.03
2023-01-31T04:35:58.694Z,17.00
2023-01-31T04:38:26.724Z,19.70
2023-01-31T04:40:56.246Z,16.93
2023-01-31T04:43:24.351Z,15.03
2023-01-31T04:45:52.612Z,14.80
2023-01-31T04:48:20.930Z,14.10
2023-01-31T04:50:49.076Z,17.30
2023-01-31T04:53:17.114Z,16.90
2023-01-31T04:55:45.157Z,16.37
2023-01-31T04:58:14.582Z,14.80
2023-01-31T05:00:44.992Z,12.67
2023-01-31T05:03:13.276Z,17.90
2023-01-31T05:05:41.398Z,14.37
2023-01-31T05:08:09.485Z,15.13
2023-01-31T05:10:37.502Z,19.00
2023-01-31T05:13:06.000Z,17.47
2023-01-31T05:15:36.221Z,14.20
2023-01-31T05:18:04.861Z,18.50
2023-01-31T05:20:36.487Z,18.10
2023-01-31T05:23:05.061Z,15.73
2023-01-31T05:25:33.491Z,17.30
2023-01-31T05:28:01.491Z,15.23
2023-01-31T05:30:29.704Z,16.37
2023-01-31T05:32:59.422Z,15.53
2023-01-31T05:35:27.449Z,11.60
2023-01-31T05:37:55.664Z,17.07
2023-01-31T05:40:24.483Z,15.37
2023-01-31T05:42:56.138Z,12.23
2023-01-31T05:45:24.612Z,17.37
2023-01-31T05:47:52.670Z,16.90
2023-01-31T05:50:22.651Z,16.33
2023-01-31T05:52:53.710Z,17.10
2023-01-31T05:55:22.420Z,15.33
2023-01-31T05:57:50.573Z,12.43
2023-01-31T06:00:19.342Z,14.30
2023-01-31T06:02:48.117Z,11.60
2023-01-31T06:05:16.794Z,14.30
2023-01-31T06:07:46.230Z,16.27
2023-01-31T06:10:15.439Z,12.40
2023-01-31T06:12:43.457Z,20.30
2023-01-31T06:15:12.556Z,15.57
2023-01-31T06:17:40.588Z,14.57
2023-01-31T06:20:09.770Z,13.33
2023-01-31T06:22:38.060Z,14.17
2023-01-31T06:25:08.614Z,16.13
2023-01-31T06:27:37.536Z,19.53
2023-01-31T06:30:06.028Z,15.33
2023-01-31T06:32:34.117Z,17.03
2023-01-31T06:35:02.132Z,16.77
2023-01-31T06:37:30.600Z,14.30
2023-01-31T06:39:59.230Z,21.53
2023-01-31T06:42:28.585Z,19.20
2023-01-31T06:44:56.624Z,18.80
2023-01-31T06:47:24.797Z,21.67
2023-01-31T06:49:52.870Z,15.07
2023-01-31T06:52:20.850Z,17.30
2023-01-31T06:54:48.906Z,21.90
2023-01-31T06:57:17.111Z,15.70
2023-01-31T06:59:46.494Z,18.53
2023-01-31T07:02:14.540Z,14.87
2023-01-31T07:04:42.620Z,17.40
2023-01-31T07:07:10.682Z,15.63
2023-01-31T07:09:38.745Z,13.83
2023-01-31T07:12:06.894Z,14.20
2023-01-31T07:14:35.107Z,17.80
2023-01-31T07:17:04.810Z,18.67
2023-01-31T07:19:33.447Z,18.37
2023-01-31T07:22:01.611Z,19.60
2023-01-31T07:24:30.191Z,20.63
2023-01-31T07:26:58.285Z,23.20
2023-01-31T07:29:26.340Z,20.23
2023-01-31T07:31:56.197Z,16.00
2023-01-31T07:34:25.725Z,17.83
2023-01-31T07:36:53.831Z,19.93
2023-01-31T07:39:21.900Z,19.70
2023-01-31T07:41:50.293Z,21.10
2023-01-31T07:44:18.395Z,20.23
2023-01-31T07:46:46.471Z,16.13
2023-01-31T07:49:14.763Z,23.47
2023-01-31T07:51:44.175Z,16.97
2023-01-31T07:54:13.125Z,22.13
2023-01-31T07:56:41.250Z,18.87
2023-01-31T07:59:09.307Z,19.00
2023-01-31T08:01:54.806Z,22.63
2023-01-31T08:04:23.103Z,23.50
2023-01-31T08:06:56.185Z,21.57
2023-01-31T08:09:24.939Z,23.43
2023-01-31T08:11:53.316Z,19.10
2023-01-31T08:14:25.221Z,21.13
2023-01-31T08:16:53.584Z,24.50
2023-01-31T08:19:22.139Z,26.97
2023-01-31T08:21:50.319Z,21.93
2023-01-31T08:24:19.890Z,31.03
2023-01-31T08:26:48.036Z,20.83
2023-01-31T08:29:16.182Z,25.77
2023-01-31T08:31:44.343Z,25.40
2023-01-31T08:34:12.619Z,23.17
2023-01-31T08:36:40.721Z,22.80
2023-01-31T08:39:08.958Z,28.03
2023-01-31T08:41:39.777Z,27.33
2023-01-31T08:44:08.013Z,22.97
2023-01-31T08:46:37.775Z,20.97
2023-01-31T08:49:07.965Z,25.50
2023-01-31T08:51:37.684Z,29.97
2023-01-31T08:54:05.896Z,24.40
2023-01-31T08:56:34.006Z,23.17
2023-01-31T08:59:03.453Z,26.70
2023-01-31T09:01:32.965Z,26.10
2023-01-31T09:04:01.024Z,21.20
2023-01-31T09:06:29.218Z,25.27
2023-01-31T09:08:58.622Z,28.73
2023-01-31T09:11:30.477Z,23.57
2023-01-31T09:13:59.107Z,25.80
2023-01-31T09:16:29.119Z,24.37
2023-01-31T09:18:57.914Z,26.50
2023-01-31T09:21:26.535Z,23.30
2023-01-31T09:23:59.210Z,25.37
2023-01-31T09:26:27.562Z,25.50
2023-01-31T09:28:56.316Z,25.60
2023-01-31T09:31:24.490Z,23.50
2023-01-31T09:33:54.713Z,27.37
2023-01-31T09:36:24.842Z,29.70
2023-01-31T09:38:55.553Z,23.90
2023-01-31T09:41:29.805Z,27.63
2023-01-31T09:44:02.804Z,23.83
2023-01-31T09:46:37.223Z,24.13
2023-01-31T09:49:10.847Z,24.20
2023-01-31T09:51:40.411Z,24.70
2023-01-31T09:54:19.274Z,32.70
2023-01-31T09:56:55.592Z,26.30
2023-01-31T09:59:28.270Z,32.20
2023-01-31T10:02:04.263Z,26.47
2023-01-31T10:04:58.906Z,26.40
2023-01-31T10:07:30.629Z,27.60
2023-01-31T10:10:05.106Z,27.57
2023-01-31T10:12:40.350Z,27.43
2023-01-31T10:15:19.033Z,25.77
2023-01-31T10:17:50.954Z,26.27
2023-01-31T10:20:35.020Z,28.63
2023-01-31T10:23:08.373Z,29.30
2023-01-31T10:25:44.366Z,24.60
2023-01-31T10:28:16.755Z,24.50
2023-01-31T10:30:49.595Z,28.07
2023-01-31T10:33:26.689Z,27.27
2023-01-31T10:35:58.506Z,28.10
2023-01-31T10:38:31.525Z,28.17
2023-01-31T10:41:07.747Z,28.07
2023-01-31T10:43:41.000Z,32.30
2023-01-31T10:46:12.788Z,26.83
2023-01-31T10:48:41.617Z,25.10
2023-01-31T10:51:26.722Z,23.13
2023-01-31T10:54:13.076Z,26.40
2023-01-31T10:56:44.317Z,26.50
2023-01-31T10:59:17.534Z,25.13
2023-01-31T11:01:45.594Z,27.87
2023-01-31T11:04:25.946Z,23.17
2023-01-31T11:06:55.542Z,23.27
2023-01-31T11:09:25.310Z,23.50
2023-01-31T11:11:58.499Z,24.27
2023-01-31T11:14:26.959Z,24.17
2023-01-31T11:17:01.012Z,23.10
2023-01-31T11:19:35.548Z,21.93
2023-01-31T11:22:05.744Z,21.70
2023-01-31T11:24:35.562Z,18.60
2023-01-31T11:27:07.418Z,21.23
2023-01-31T11:29:39.186Z,21.57
2023-01-31T11:32:18.942Z,20.67
2023-01-31T11:34:58.134Z,19.30
2023-01-31T11:37:29.316Z,23.90
2023-01-31T11:39:59.379Z,22.80
2023-01-31T11:42:28.326Z,20.30
2023-01-31T11:45:02.280Z,18.33
2023-01-31T11:47:41.423Z,24.97
2023-01-31T11:50:21.473Z,20.17
2023-01-31T11:52:56.230Z,18.60
2023-01-31T11:55:25.005Z,15.37
2023-01-31T11:57:58.753Z,17.37
2023-01-31T12:00:28.537Z,19.13
2023-01-31T12:03:03.111Z,15.37
2023-01-31T12:05:40.561Z,17.70
2023-01-31T12:08:30.292Z,16.40
2023-01-31T12:10:59.273Z,16.33
2023-01-31T12:13:28.931Z,15.63
2023-01-31T12:16:00.959Z,12.80
2023-01-31T12:18:50.326Z,17.67
2023-01-31T12:21:29.096Z,13.57
2023-01-31T12:24:08.661Z,10.10
2023-01-31T12:26:44.711Z,13.10
2023-01-31T12:29:36.630Z,15.57
2023-01-31T12:32:17.099Z,11.80
2023-01-31T12:35:08.867Z,11.53
2023-01-31T12:37:45.174Z,12.93
2023-01-31T12:40:30.862Z,9.97
2023-01-31T12:43:02.337Z,8.73
2023-01-31T12:45:55.011Z,8.70
2023-01-31T12:48:55.767Z,9.90
2023-01-31T12:51:37.485Z,12.43
2023-01-31T12:54:25.385Z,8.00
2023-01-31T12:57:04.683Z,7.77
2023-01-31T12:59:45.626Z,7.60
2023-01-31T13:02:25.916Z,8.23
2023-01-31T13:04:59.202Z,6.80
2023-01-31T13:07:32.114Z,7.70
2023-01-31T13:10:04.209Z,10.43
2023-01-31T13:12:36.261Z,7.00
2023-01-31T13:15:07.895Z,6.10
2023-01-31T13:17:40.717Z,7.63
2023-01-31T13:20:27.231Z,8.40
2023-01-31T13:22:58.798Z,6.23
2023-01-31T13:25:38.254Z,5.90
2023-01-31T13:28:16.794Z,6.33
2023-01-31T13:30:50.074Z,7.23
2023-01-31T13:33:27.782Z,5.80
2023-01-31T13:36:04.470Z,6.17
2023-01-31T13:38:38.688Z,6.40
2023-01-31T13:41:10.332Z,7.30
2023-01-31T13:43:40.491Z,7.37
2023-01-31T13:46:12.716Z,9.23
2023-01-31T13:48:46.239Z,6.60
2023-01-31T13:51:21.001Z,6.23
2023-01-31T13:53:51.607Z,9.00
2023-01-31T13:56:24.916Z,7.30
2023-01-31T13:58:56.730Z,11.63
2023-01-31T14:01:27.199Z,8.53
2023-01-31T14:04:25.209Z,8.70
2023-01-31T14:07:12.065Z,9.33
2023-01-31T14:09:43.653Z,10.57
2023-01-31T14:12:42.012Z,10.33
2023-01-31T14:15:45.811Z,13.43
2023-01-31T14:18:40.826Z,11.40
2023-01-31T14:21:54.764Z,13.70
2023-01-31T14:25:04.642Z,13.13
2023-01-31T14:27:37.241Z,10.37
2023-01-31T14:30:37.463Z,17.97
2023-01-31T14:33:37.352Z,15.77
2023-01-31T14:36:35.285Z,13.23
2023-01-31T14:39:27.324Z,13.60
2023-01-31T14:42:25.075Z,13.17
2023-01-31T14:45:13.969Z,11.93
2023-01-31T14:47:57.161Z,16.37
2023-01-31T14:50:54.404Z,13.53
2023-01-31T14:53:51.305Z,14.40
2023-01-31T14:56:33.644Z,13.33
2023-01-31T14:59:02.201Z,13.43
2023-01-31T15:01:36.505Z,17.60
2023-01-31T15:04:06.260Z,15.00
2023-01-31T15:06:40.718Z,19.33
2023-01-31T15:09:35.600Z,17.63
2023-01-31T15:12:07.853Z,16.33
2023-01-31T15:14:38.820Z,10.97
2023-01-31T15:17:27.637Z,13.83
2023-01-31T15:20:14.395Z,13.00
2023-01-31T15:22:43.800Z,11.20
2023-01-31T15:25:26.062Z,13.53
2023-01-31T15:27:56.950Z,13.00
2023-01-31T15:30:26.076Z,11.93
2023-01-31T15:32:59.031Z,14.83
2023-01-31T15:35:30.996Z,14.67
2023-01-31T15:38:05.780Z,16.23
2023-01-31T15:40:35.410Z,18.43
2023-01-31T15:43:17.457Z,15.00
2023-01-31T15:45:47.635Z,15.07
2023-01-31T15:48:17.784Z,13.20
2023-01-31T15:50:54.467Z,10.00
2023-01-31T15:53:24.623Z,15.30
2023-01-31T15:55:56.813Z,11.63
2023-01-31T15:58:27.006Z,13.87
2023-01-31T16:00:56.625Z,16.87
2023-01-31T16:03:26.974Z,16.25
2023-01-31T16:05:57.644Z,11.93
2023-01-31T16:08:30.150Z,11.20
2023-01-31T16:11:00.788Z,15.10
2023-01-31T16:13:29.247Z,14.63
2023-01-31T16:15:57.742Z,12.27
2023-01-31T16:18:26.623Z,13.60
2023-01-31T16:20:57.744Z,10.77
2023-01-31T16:23:29.349Z,18.63
2023-01-31T16:26:04.160Z,12.00
2023-01-31T16:28:37.895Z,14.40
2023-01-31T16:31:08.666Z,16.13
2023-01-31T16:33:37.763Z,13.43
2023-01-31T16:36:14.421Z,11.80
2023-01-31T16:38:44.621Z,11.97
2023-01-31T16:41:14.527Z,12.20
2023-01-31T16:43:44.092Z,12.43
2023-01-31T16:46:22.266Z,12.17
2023-01-31T16:49:17.979Z,12.03
2023-01-31T16:51:47.597Z,11.87
2023-01-31T16:54:19.881Z,13.50
2023-01-31T16:57:08.295Z,12.77
2023-01-31T16:59:41.354Z,12.60
2023-01-31T17:02:20.041Z,11.30
2023-01-31T17:04:51.471Z,13.53
2023-01-31T17:07:22.045Z,15.20
2023-01-31T17:09:54.375Z,12.30
2023-01-31T17:12:26.414Z,15.70
2023-01-31T17:15:00.190Z,15.40
2023-01-31T17:17:34.228Z,14.20
2023-01-31T17:20:02.769Z,15.47
2023-01-31T17:22:30.840Z,13.30
2023-01-31T17:24:58.863Z,12.83
2023-01-31T17:27:28.247Z,15.20
2023-01-31T17:29:56.351Z,13.47
2023-01-31T17:32:24.370Z,15.70
2023-01-31T17:34:52.497Z,17.70
2023-01-31T17:37:30.301Z,18.73
2023-01-31T17:40:00.550Z,17.03
2023-01-31T17:42:29.981Z,13.70
2023-01-31T17:44:57.993Z,16.13
2023-01-31T17:47:27.006Z,15.77
2023-01-31T17:49:55.536Z,16.73
2023-01-31T17:52:23.761Z,18.37
2023-01-31T17:54:51.805Z,21.07
2023-01-31T17:57:20.017Z,20.70
2023-01-31T17:59:49.395Z,19.23
2023-01-31T18:02:17.407Z,16.60
2023-01-31T18:04:45.585Z,22.77
2023-01-31T18:07:17.213Z,21.33
2023-01-31T18:09:45.666Z,16.70
2023-01-31T18:12:13.725Z,19.07
2023-01-31T18:14:41.801Z,16.50
2023-01-31T18:17:11.260Z,17.73
2023-01-31T18:19:39.525Z,22.97
2023-01-31T18:22:07.662Z,26.73
2023-01-31T18:24:35.989Z,18.13
2023-01-31T18:27:03.975Z,15.90
2023-01-31T18:29:32.030Z,21.60
2023-01-31T18:32:02.553Z,18.83
2023-01-31T18:34:33.177Z,17.40
2023-01-31T18:37:01.395Z,23.27
2023-01-31T18:39:29.452Z,21.03
2023-01-31T18:41:57.656Z,18.33
2023-01-31T18:44:27.518Z,14.77
2023-01-31T18:46:55.749Z,17.60
2023-01-31T18:49:24.192Z,19.83
2023-01-31T18:51:53.801Z,21.37
2023-01-31T18:54:22.156Z,21.17
2023-01-31T18:56:50.987Z,16.47
2023-01-31T18:59:19.062Z,18.93
2023-01-31T19:01:47.189Z,20.13
2023-01-31T19:04:15.419Z,24.03
2023-01-31T19:06:44.926Z,19.17
2023-01-31T19:09:14.842Z,20.30
2023-01-31T19:11:43.376Z,20.30
2023-01-31T19:14:13.674Z,19.33
2023-01-31T19:16:43.536Z,16.90
2023-01-31T19:19:12.002Z,18.73
2023-01-31T19:21:40.915Z,19.70
2023-01-31T19:24:12.655Z,16.70
2023-01-31T19:26:42.722Z,19.20
2023-01-31T19:29:14.446Z,20.37
2023-01-31T19:31:43.355Z,18.20
2023-01-31T19:34:12.348Z,22.20
2023-01-31T19:36:44.616Z,26.73
2023-01-31T19:39:13.748Z,19.30
2023-01-31T19:41:43.368Z,19.57
2023-01-31T19:44:11.603Z,21.03
2023-01-31T19:46:39.761Z,19.80
2023-01-31T19:49:07.837Z,21.73
2023-01-31T19:51:37.930Z,16.70
2023-01-31T19:54:06.734Z,19.13
2023-01-31T19:56:34.876Z,19.40
2023-01-31T19:59:05.992Z,21.20
2023-01-31T20:01:35.063Z,22.40
2023-01-31T20:04:03.345Z,17.53
2023-01-31T20:06:34.588Z,16.63
2023-01-31T20:09:05.935Z,16.80
2023-01-31T20:11:34.972Z,24.53
2023-01-31T20:14:06.375Z,22.57
2023-01-31T20:16:34.664Z,21.97
2023-01-31T20:19:03.708Z,20.07
2023-01-31T20:21:33.032Z,17.40
2023-01-31T20:24:01.389Z,19.13
2023-01-31T20:26:30.429Z,17.73
2023-01-31T20:28:58.854Z,17.20
2023-01-31T20:31:28.322Z,22.17
2023-01-31T20:33:56.488Z,16.43
2023-01-31T20:36:24.695Z,18.83
2023-01-31T20:38:52.941Z,17.03
2023-01-31T20:41:22.183Z,18.67
2023-01-31T20:43:51.399Z,14.70
2023-01-31T20:46:19.868Z,25.03
2023-01-31T20:48:49.381Z,16.60
2023-01-31T20:51:17.682Z,16.07
2023-01-31T20:53:45.745Z,19.80
2023-01-31T20:56:13.988Z,14.40
2023-01-31T20:58:43.755Z,18.93
2023-01-31T21:01:12.643Z,17.27
2023-01-31T21:03:40.815Z,19.97
2023-01-31T21:06:10.938Z,19.37
2023-01-31T21:08:39.972Z,18.90
2023-01-31T21:11:09.925Z,21.53
2023-01-31T21:13:38.918Z,14.97
2023-01-31T21:16:09.088Z,17.20
2023-01-31T21:18:39.549Z,20.33
2023-01-31T21:21:09.511Z,17.33
2023-01-31T21:23:39.832Z,21.10
2023-01-31T21:26:10.093Z,17.77
2023-01-31T21:28:39.956Z,14.20
2023-01-31T21:31:12.363Z,16.80
2023-01-31T21:33:40.717Z,17.77
2023-01-31T21:36:10.513Z,19.40
2023-01-31T21:38:40.390Z,18.90
2023-01-31T21:41:26.175Z,15.40
2023-01-31T21:43:54.424Z,17.40
2023-01-31T21:46:22.488Z,16.47
2023-01-31T21:48:51.409Z,17.23
2023-01-31T21:51:22.137Z,15.70
2023-01-31T21:53:51.991Z,22.57
2023-01-31T21:56:22.153Z,18.10
2023-01-31T21:58:50.541Z,24.67
2023-01-31T22:01:20.423Z,20.07
2023-01-31T22:03:50.139Z,20.80
2023-01-31T22:06:20.921Z,20.53
2023-01-31T22:08:54.045Z,17.27
2023-01-31T22:11:22.373Z,15.13
2023-01-31T22:13:54.166Z,16.10
2023-01-31T22:16:23.652Z,20.03
2023-01-31T22:18:52.690Z,21.87
2023-01-31T22:21:24.078Z,19.17
2023-01-31T22:23:54.971Z,18.80
2023-01-31T22:26:25.622Z,20.57
2023-01-31T22:28:56.223Z,24.30
2023-01-31T22:31:24.767Z,13.93
2023-01-31T22:33:53.098Z,23.10
2023-01-31T22:36:21.675Z,16.23
2023-01-31T22:38:49.726Z,21.90
2023-01-31T22:41:20.284Z,19.43
2023-01-31T22:43:50.726Z,17.73
2023-01-31T22:46:21.776Z,18.77
2023-01-31T22:48:50.437Z,16.80
2023-01-31T22:51:20.008Z,15.53
2023-01-31T22:53:48.722Z,14.13
2023-01-31T22:56:19.831Z,20.87
2023-01-31T22:58:48.425Z,22.10
2023-01-31T23:01:17.852Z,20.50
2023-01-31T23:03:46.653Z,19.87
2023-01-31T23:06:15.548Z,20.93
2023-01-31T23:08:44.181Z,17.80
2023-01-31T23:11:14.000Z,17.60
2023-01-31T23:13:44.014Z,19.50
2023-01-31T23:16:17.401Z,17.20
2023-01-31T23:18:45.773Z,15.37
2023-01-31T23:21:16.741Z,22.00
2023-01-31T23:23:45.652Z,12.20
2023-01-31T23:26:14.339Z,16.33
2023-01-31T23:28:43.761Z,21.17
2023-01-31T23:31:11.865Z,23.53
2023-01-31T23:33:39.949Z,27.30
2023-01-31T23:36:08.608Z,21.77
2023-01-31T23:38:36.623Z,21.73
2023-01-31T23:41:04.779Z,17.10
2023-01-31T23:43:32.826Z,24.83
2023-01-31T23:46:02.242Z,20.10
2023-01-31T23:48:30.402Z,18.03
2023-01-31T23:51:03.581Z,20.03
2023-01-31T23:53:31.643Z,26.80
2023-01-31T23:55:59.726Z,18.40
2023-01-31T23:58:27.731Z,15.50
